createdAt,value
2023-05-25T00:00:19.147Z,102070.44
2023-05-25T00:02:49.358Z,102071.31
2023-05-25T00:05:18.283Z,102063.44
2023-05-25T00:07:45.337Z,102074.84
2023-05-25T00:10:12.332Z,102060.81
2023-05-25T00:12:39.261Z,102067.81
2023-05-25T00:15:07.525Z,102073.09
2023-05-25T00:17:37.112Z,102066.09
2023-05-25T00:20:07.331Z,102066.09
2023-05-25T00:22:37.933Z,102066.94
2023-05-25T00:25:06.538Z,102064.31
2023-05-25T00:27:33.472Z,102059.03
2023-05-25T00:30:00.469Z,102067.81
2023-05-25T00:32:27.696Z,102055.53
2023-05-25T00:34:55.362Z,102066.88
2023-05-25T00:37:22.344Z,102065.09
2023-05-25T00:39:50.080Z,102065.09
2023-05-25T00:42:17.188Z,102066.81
2023-05-25T00:44:48.277Z,102065.03
2023-05-25T00:47:17.510Z,102070.28
2023-05-25T00:49:44.425Z,102057.97
2023-05-25T00:52:13.633Z,102074.59
2023-05-25T00:54:40.615Z,102070.22
2023-05-25T00:57:08.366Z,102065.78
2023-05-25T00:59:41.480Z,102073.66
2023-05-25T01:02:11.726Z,102073.66
2023-05-25T01:04:45.320Z,102076.22
2023-05-25T01:07:19.361Z,102069.22
2023-05-25T01:09:47.487Z,102067.41
2023-05-25T01:12:16.526Z,102072.66
2023-05-25T01:14:43.783Z,102070.88
2023-05-25T01:17:11.325Z,102066.41
2023-05-25T01:19:41.062Z,102065.50
2023-05-25T01:22:32.500Z,102076.84
2023-05-25T01:25:13.770Z,102063.69
2023-05-25T01:27:47.198Z,102061.84
2023-05-25T01:30:16.415Z,102059.19
2023-05-25T01:32:44.080Z,102060.91
2023-05-25T01:35:11.812Z,102066.13
2023-05-25T01:37:45.434Z,102069.63
2023-05-25T01:40:14.432Z,102076.56
2023-05-25T01:42:41.744Z,102072.13
2023-05-25T01:45:10.321Z,102091.34
2023-05-25T01:48:16.339Z,102084.28
2023-05-25T01:50:54.801Z,102086.88
2023-05-25T01:53:39.086Z,102084.19
2023-05-25T01:56:09.858Z,102083.22
2023-05-25T01:58:42.326Z,102079.75
2023-05-25T02:01:12.536Z,102087.56
2023-05-25T02:03:41.483Z,102075.28
2023-05-25T02:06:09.503Z,102081.38
2023-05-25T02:08:36.430Z,102079.63
2023-05-25T02:11:03.607Z,102071.72
2023-05-25T02:13:30.704Z,102075.16
2023-05-25T02:15:57.749Z,102073.34
2023-05-25T02:18:24.723Z,102069.84
2023-05-25T02:20:54.512Z,102068.94
2023-05-25T02:23:21.743Z,102078.53
2023-05-25T02:25:48.783Z,102069.72
2023-05-25T02:28:16.430Z,102073.19
2023-05-25T02:30:43.575Z,102081.91
2023-05-25T02:33:10.511Z,102071.38
2023-05-25T02:35:38.254Z,102077.47
2023-05-25T02:38:05.197Z,102085.25
2023-05-25T02:40:32.439Z,102085.25
2023-05-25T02:42:59.415Z,102090.44
2023-05-25T02:45:26.428Z,102079.03
2023-05-25T02:47:53.433Z,102079.00
2023-05-25T02:50:22.668Z,102071.13
2023-05-25T02:52:52.868Z,102067.59
2023-05-25T02:55:19.800Z,102065.81
2023-05-25T02:57:46.938Z,102067.53
2023-05-25T03:00:27.107Z,102071.00
2023-05-25T03:02:54.420Z,102071.00
2023-05-25T03:05:22.217Z,102068.34
2023-05-25T03:07:49.279Z,102070.09
2023-05-25T03:10:16.212Z,102079.66
2023-05-25T03:12:44.111Z,102083.97
2023-05-25T03:15:13.927Z,102085.69
2023-05-25T03:17:41.089Z,102087.44
2023-05-25T03:20:10.458Z,102094.41
2023-05-25T03:22:40.617Z,102098.78
2023-05-25T03:25:08.020Z,102101.38
2023-05-25T03:27:35.020Z,102091.75
2023-05-25T03:30:02.204Z,102092.63
2023-05-25T03:32:29.648Z,102094.38
2023-05-25T03:34:57.253Z,102090.06
2023-05-25T03:37:24.268Z,102093.44
2023-05-25T03:39:51.322Z,102091.81
2023-05-25T03:42:18.350Z,102097.03
2023-05-25T03:44:45.429Z,102098.78
2023-05-25T03:47:13.172Z,102089.19
2023-05-25T03:49:40.128Z,102091.00
2023-05-25T03:52:07.297Z,102098.88
2023-05-25T03:54:34.244Z,102101.53
2023-05-25T03:57:03.406Z,102102.47
2023-05-25T03:59:31.642Z,102097.41
2023-05-25T04:01:58.570Z,102109.00
2023-05-25T04:04:28.240Z,102106.69
2023-05-25T04:06:55.535Z,102109.59
2023-05-25T04:09:23.120Z,102106.34
2023-05-25T04:11:50.092Z,102107.47
2023-05-25T04:14:17.110Z,102101.59
2023-05-25T04:16:45.791Z,102108.72
2023-05-25T04:19:14.222Z,102116.72
2023-05-25T04:21:41.257Z,102117.72
2023-05-25T04:24:08.287Z,102116.91
2023-05-25T04:27:22.943Z,102119.56
2023-05-25T04:29:50.638Z,102122.22
2023-05-25T04:32:37.266Z,102124.81
2023-05-25T04:35:23.440Z,102123.06
2023-05-25T04:37:51.611Z,102120.44
2023-05-25T04:40:18.704Z,102127.44
2023-05-25T04:42:45.657Z,102124.78
2023-05-25T04:45:17.502Z,102127.44
2023-05-25T04:47:45.294Z,102130.94
2023-05-25T04:50:12.770Z,102135.31
2023-05-25T04:52:39.817Z,102132.66
2023-05-25T04:55:09.778Z,102124.69
2023-05-25T04:57:39.901Z,102124.69
2023-05-25T05:00:09.835Z,102127.28
2023-05-25T05:02:38.417Z,102133.41
2023-05-25T05:05:06.555Z,102132.53
2023-05-25T05:07:33.897Z,102134.28
2023-05-25T05:10:00.925Z,102136.03
2023-05-25T05:12:28.649Z,102136.91
2023-05-25T05:14:58.211Z,102133.41
2023-05-25T05:17:26.427Z,102137.78
2023-05-25T05:19:53.696Z,102144.78
2023-05-25T05:22:20.718Z,102145.69
2023-05-25T05:24:47.660Z,102163.19
2023-05-25T05:27:21.382Z,102156.22
2023-05-25T05:29:54.069Z,102157.09
2023-05-25T05:32:21.167Z,102164.13
2023-05-25T05:34:48.189Z,102167.69
2023-05-25T05:37:30.941Z,102165.06
2023-05-25T05:39:57.891Z,102173.84
2023-05-25T05:42:25.146Z,102165.06
2023-05-25T05:44:52.107Z,102169.47
2023-05-25T05:47:19.046Z,102164.22
2023-05-25T05:49:47.337Z,102174.72
2023-05-25T05:52:14.540Z,102177.41
2023-05-25T05:54:41.488Z,102173.00
2023-05-25T05:57:11.996Z,102178.31
2023-05-25T05:59:39.047Z,102180.97
2023-05-25T06:02:07.450Z,102181.84
2023-05-25T06:04:34.637Z,102184.50
2023-05-25T06:07:01.603Z,102186.25
2023-05-25T06:09:28.565Z,102182.75
2023-05-25T06:11:59.479Z,102188.91
2023-05-25T06:14:28.471Z,102187.13
2023-05-25T06:16:58.309Z,102191.53
2023-05-25T06:19:25.607Z,102186.28
2023-05-25T06:21:52.591Z,102190.69
2023-05-25T06:24:21.388Z,102190.72
2023-05-25T06:26:48.342Z,102188.94
2023-05-25T06:29:17.396Z,102197.69
2023-05-25T06:31:44.716Z,102198.59
2023-05-25T06:34:11.744Z,102198.59
2023-05-25T06:36:39.379Z,102199.44
2023-05-25T06:39:06.543Z,102202.06
2023-05-25T06:41:33.475Z,102195.91
2023-05-25T06:44:00.658Z,102186.25
2023-05-25T06:46:32.866Z,102193.25
2023-05-25T06:49:00.979Z,102195.00
2023-05-25T06:51:28.152Z,102196.72
2023-05-25T06:53:58.184Z,102201.97
2023-05-25T06:56:25.145Z,102196.59
2023-05-25T06:58:52.183Z,102191.28
2023-05-25T07:01:19.216Z,102192.97
2023-05-25T07:03:46.269Z,102185.88
2023-05-25T07:06:13.236Z,102184.91
2023-05-25T07:08:40.170Z,102201.56
2023-05-25T07:11:10.519Z,102199.75
2023-05-25T07:13:37.535Z,102196.16
2023-05-25T07:16:04.535Z,102198.81
2023-05-25T07:18:31.660Z,102198.75
2023-05-25T07:20:59.358Z,102196.06
2023-05-25T07:23:26.384Z,102195.16
2023-05-25T07:25:53.313Z,102197.75
2023-05-25T07:28:20.277Z,102195.06
2023-05-25T07:30:47.216Z,102192.38
2023-05-25T07:33:14.241Z,102193.25
2023-05-25T07:35:41.141Z,102195.84
2023-05-25T07:38:08.062Z,102198.47
2023-05-25T07:40:34.981Z,102193.16
2023-05-25T07:43:01.992Z,102200.13
2023-05-25T07:45:28.951Z,102195.69
2023-05-25T07:47:56.075Z,102195.69
2023-05-25T07:50:23.959Z,102201.84
2023-05-25T07:52:51.094Z,102200.94
2023-05-25T07:55:19.283Z,102196.56
2023-05-25T07:57:46.274Z,102194.78
2023-05-25T08:00:13.713Z,102196.56
2023-05-25T08:02:41.089Z,102200.97
2023-05-25T08:05:08.953Z,102198.28
2023-05-25T08:07:36.146Z,102198.25
2023-05-25T08:10:03.667Z,102210.53
2023-05-25T08:12:47.133Z,102201.63
2023-05-25T08:15:16.843Z,102208.63
2023-05-25T08:17:44.168Z,102203.31
2023-05-25T08:20:12.092Z,102211.22
2023-05-25T08:22:39.050Z,102211.13
2023-05-25T08:25:06.937Z,102211.13
2023-05-25T08:27:35.771Z,102212.03
2023-05-25T08:30:06.931Z,102210.25
2023-05-25T08:32:33.979Z,102211.13
2023-05-25T08:35:02.047Z,102207.50
2023-05-25T08:37:29.318Z,102218.06
2023-05-25T08:39:56.259Z,102213.63
2023-05-25T08:42:23.881Z,102214.44
2023-05-25T08:44:50.848Z,102217.84
2023-05-25T08:47:20.459Z,102229.25
2023-05-25T08:49:49.437Z,102227.41
2023-05-25T08:52:22.430Z,102225.56
2023-05-25T08:54:54.335Z,102216.66
2023-05-25T08:57:35.715Z,102234.16
2023-05-25T09:00:10.958Z,102233.19
2023-05-25T09:03:03.710Z,102235.72
2023-05-25T09:05:31.139Z,102234.69
2023-05-25T09:07:58.986Z,102238.13
2023-05-25T09:10:29.057Z,102239.78
2023-05-25T09:12:56.334Z,102230.84
2023-05-25T09:15:23.305Z,102244.00
2023-05-25T09:17:50.296Z,102251.94
2023-05-25T09:20:19.737Z,102240.44
2023-05-25T09:22:49.492Z,102250.13
2023-05-25T09:25:21.874Z,102250.16
2023-05-25T09:27:49.691Z,102254.63
2023-05-25T09:30:16.731Z,102243.19
2023-05-25T09:32:43.718Z,102253.84
2023-05-25T09:35:13.661Z,102260.97
2023-05-25T09:37:42.451Z,102262.72
2023-05-25T09:40:15.340Z,102257.41
2023-05-25T09:42:42.988Z,102258.31
2023-05-25T09:45:10.264Z,102261.84
2023-05-25T09:47:38.351Z,102266.28
2023-05-25T09:50:06.327Z,102254.88
2023-05-25T09:52:33.324Z,102260.13
2023-05-25T09:55:02.074Z,102262.75
2023-05-25T09:57:29.055Z,102267.06
2023-05-25T09:59:56.745Z,102262.53
2023-05-25T10:02:23.754Z,102266.81
2023-05-25T10:04:50.760Z,102258.72
2023-05-25T10:07:17.836Z,102262.09
2023-05-25T10:09:46.652Z,102263.75
2023-05-25T10:12:18.533Z,102268.00
2023-05-25T10:14:46.635Z,102274.09
2023-05-25T10:17:19.597Z,102285.56
2023-05-25T10:20:01.018Z,102280.19
2023-05-25T10:22:44.903Z,102280.03
2023-05-25T10:25:29.479Z,102287.00
2023-05-25T10:28:02.786Z,102284.44
2023-05-25T10:30:30.328Z,102291.59
2023-05-25T10:32:57.629Z,102296.09
2023-05-25T10:35:25.318Z,102290.84
2023-05-25T10:37:53.536Z,102297.03
2023-05-25T10:40:23.962Z,102290.94
2023-05-25T10:42:51.852Z,102297.16
2023-05-25T10:45:19.857Z,102293.66
2023-05-25T10:47:47.384Z,102297.22
2023-05-25T10:50:22.871Z,102295.50
2023-05-25T10:53:13.556Z,102298.97
2023-05-25T10:55:49.783Z,102294.44
2023-05-25T10:58:19.059Z,102302.25
2023-05-25T11:01:11.179Z,102294.16
2023-05-25T11:03:44.298Z,102290.53
2023-05-25T11:06:15.922Z,102280.63
2023-05-25T11:08:56.167Z,102290.16
2023-05-25T11:11:42.944Z,102282.06
2023-05-25T11:14:23.669Z,102282.00
2023-05-25T11:17:16.559Z,102275.53
2023-05-25T11:19:50.732Z,102278.00
2023-05-25T11:22:23.814Z,102273.47
2023-05-25T11:24:53.261Z,102274.22
2023-05-25T11:27:28.134Z,102274.06
2023-05-25T11:29:59.520Z,102270.34
2023-05-25T11:32:28.382Z,102283.56
2023-05-25T11:34:57.365Z,102273.84
2023-05-25T11:37:28.770Z,102273.13
2023-05-25T11:39:56.012Z,102273.97
2023-05-25T11:42:24.781Z,102269.44
2023-05-25T11:44:51.889Z,102271.06
2023-05-25T11:47:24.927Z,102263.94
2023-05-25T11:49:52.255Z,102272.66
2023-05-25T11:52:22.269Z,102271.84
2023-05-25T11:54:49.481Z,102269.34
2023-05-25T11:57:25.254Z,102264.97
2023-05-25T12:00:00.302Z,102256.84
2023-05-25T12:02:27.358Z,102254.88
2023-05-25T12:04:59.110Z,102261.69
2023-05-25T12:07:27.251Z,102258.72
2023-05-25T12:10:15.031Z,102258.63
2023-05-25T12:12:52.377Z,102270.16
2023-05-25T12:15:24.490Z,102258.63
2023-05-25T12:17:53.535Z,102265.66
2023-05-25T12:20:21.447Z,102270.91
2023-05-25T12:22:48.614Z,102263.88
2023-05-25T12:25:21.235Z,102266.50
2023-05-25T12:27:48.231Z,102267.22
2023-05-25T12:30:15.586Z,102257.44
2023-05-25T12:33:02.878Z,102257.34
2023-05-25T12:35:45.289Z,102252.91
2023-05-25T12:38:17.752Z,102254.69
2023-05-25T12:40:45.470Z,102245.91
2023-05-25T12:43:13.197Z,102255.69
2023-05-25T12:45:41.846Z,102247.78
2023-05-25T12:48:08.866Z,102247.91
2023-05-25T12:50:37.262Z,102245.25
2023-05-25T12:53:04.526Z,102254.06
2023-05-25T12:55:34.317Z,102244.25
2023-05-25T12:58:06.658Z,102248.66
2023-05-25T13:00:39.265Z,102246.09
2023-05-25T13:03:09.683Z,102241.84
2023-05-25T13:05:38.356Z,102252.00
2023-05-25T13:08:06.725Z,102249.69
2023-05-25T13:10:34.734Z,102248.81
2023-05-25T13:13:02.061Z,102251.41
2023-05-25T13:15:29.154Z,102254.78
2023-05-25T13:17:59.630Z,102255.53
2023-05-25T13:20:32.590Z,102245.56
2023-05-25T13:22:59.752Z,102250.69
2023-05-25T13:25:29.908Z,102261.97
2023-05-25T13:27:59.745Z,102244.19
2023-05-25T13:30:26.896Z,102242.34
2023-05-25T13:32:53.937Z,102251.19
2023-05-25T13:35:37.944Z,102249.47
2023-05-25T13:38:05.157Z,102252.41
2023-05-25T13:40:32.262Z,102249.81
2023-05-25T13:42:59.171Z,102242.81
2023-05-25T13:45:26.125Z,102242.81
2023-05-25T13:47:53.199Z,102243.72
2023-05-25T13:50:20.241Z,102235.66
2023-05-25T13:52:47.165Z,102225.94
2023-05-25T13:55:14.120Z,102234.75
2023-05-25T13:57:41.150Z,102232.03
2023-05-25T14:00:09.422Z,102239.13
2023-05-25T14:02:37.159Z,102227.81
2023-05-25T14:05:04.430Z,102237.69
2023-05-25T14:07:33.107Z,102236.91
2023-05-25T14:10:00.529Z,102229.72
2023-05-25T14:12:27.619Z,102236.81
2023-05-25T14:14:54.540Z,102236.81
2023-05-25T14:17:21.462Z,102235.97
2023-05-25T14:19:48.386Z,102231.63
2023-05-25T14:22:15.369Z,102241.00
2023-05-25T14:24:42.453Z,102222.81
2023-05-25T14:27:09.572Z,102240.69
2023-05-25T14:29:36.651Z,102233.78
2023-05-25T14:32:03.847Z,102238.16
2023-05-25T14:34:30.793Z,102239.94
2023-05-25T14:36:57.717Z,102246.09
2023-05-25T14:39:24.662Z,102240.78
2023-05-25T14:41:51.577Z,102237.22
2023-05-25T14:44:18.468Z,102241.66
2023-05-25T14:46:46.142Z,102238.13
2023-05-25T14:49:13.742Z,102234.56
2023-05-25T14:51:40.710Z,102240.81
2023-05-25T14:54:08.025Z,102245.34
2023-05-25T14:56:35.498Z,102235.81
2023-05-25T14:59:02.415Z,102243.00
2023-05-25T15:01:29.595Z,102240.38
2023-05-25T15:03:57.077Z,102247.47
2023-05-25T15:06:24.259Z,102249.28
2023-05-25T15:08:51.368Z,102239.53
2023-05-25T15:11:18.576Z,102245.75
2023-05-25T15:13:45.962Z,102241.41
2023-05-25T15:16:14.029Z,102243.19
2023-05-25T15:18:41.000Z,102243.34
2023-05-25T15:21:07.963Z,102242.56
2023-05-25T15:23:35.764Z,102252.31
2023-05-25T15:26:07.666Z,102235.50
2023-05-25T15:28:34.929Z,102239.88
2023-05-25T15:31:03.106Z,102237.16
2023-05-25T15:33:48.360Z,102232.84
2023-05-25T15:36:18.956Z,102243.56
2023-05-25T15:38:49.046Z,102241.84
2023-05-25T15:41:17.495Z,102234.81
2023-05-25T15:43:58.498Z,102236.47
2023-05-25T15:46:25.931Z,102232.09
2023-05-25T15:48:53.741Z,102231.19
2023-05-25T15:51:21.214Z,102232.16
2023-05-25T15:53:48.333Z,102239.22
2023-05-25T15:56:15.279Z,102245.38
2023-05-25T15:58:42.252Z,102243.50
2023-05-25T16:01:10.759Z,102240.81
2023-05-25T16:03:39.485Z,102237.44
2023-05-25T16:06:06.676Z,102244.63
2023-05-25T16:08:33.637Z,102242.00
2023-05-25T16:11:00.617Z,102241.13
2023-05-25T16:13:27.544Z,102242.06
2023-05-25T16:15:54.484Z,102254.47
2023-05-25T16:18:21.432Z,102245.63
2023-05-25T16:20:55.589Z,102250.06
2023-05-25T16:23:23.516Z,102234.09
2023-05-25T16:25:50.856Z,102245.50
2023-05-25T16:28:17.779Z,102250.66
2023-05-25T16:30:44.751Z,102235.31
2023-05-25T16:33:11.798Z,102236.75
2023-05-25T16:35:38.816Z,102237.28
2023-05-25T16:38:05.725Z,102233.34
2023-05-25T16:40:33.503Z,102233.81
2023-05-25T16:43:00.625Z,102230.81
2023-05-25T16:45:27.563Z,102232.25
2023-05-25T16:47:54.597Z,102239.13
2023-05-25T16:50:21.552Z,102228.06
2023-05-25T16:52:48.618Z,102235.53
2023-05-25T16:55:16.182Z,102228.94
2023-05-25T16:57:43.231Z,102231.91
2023-05-25T17:00:11.528Z,102233.13
2023-05-25T17:02:38.538Z,102237.94
2023-05-25T17:05:06.726Z,102237.38
2023-05-25T17:07:34.565Z,102239.72
2023-05-25T17:10:02.045Z,102244.56
2023-05-25T17:12:28.955Z,102243.47
2023-05-25T17:14:55.877Z,102243.31
2023-05-25T17:17:22.988Z,102246.56
2023-05-25T17:19:49.901Z,102241.63
2023-05-25T17:22:16.836Z,102229.91
2023-05-25T17:24:43.762Z,102241.88
2023-05-25T17:27:10.670Z,102241.09
2023-05-25T17:29:37.886Z,102242.91
2023-05-25T17:32:05.294Z,102236.63
2023-05-25T17:34:32.586Z,102234.47
2023-05-25T17:36:59.531Z,102234.91
2023-05-25T17:39:26.445Z,102243.31
2023-05-25T17:41:53.350Z,102234.94
2023-05-25T17:44:20.268Z,102232.94
2023-05-25T17:46:47.209Z,102237.03
2023-05-25T17:49:14.230Z,102231.38
2023-05-25T17:51:41.291Z,102233.53
2023-05-25T17:54:08.944Z,102237.38
2023-05-25T17:56:35.888Z,102238.59
2023-05-25T17:59:03.533Z,102238.00
2023-05-25T18:01:30.634Z,102241.78
2023-05-25T18:03:57.774Z,102244.66
2023-05-25T18:06:25.782Z,102255.53
2023-05-25T18:08:54.163Z,102250.50
2023-05-25T18:11:21.708Z,102249.88
2023-05-25T18:13:48.672Z,102243.94
2023-05-25T18:16:15.712Z,102239.72
2023-05-25T18:18:42.642Z,102250.53
2023-05-25T18:21:09.567Z,102248.94
2023-05-25T18:23:36.471Z,102250.00
2023-05-25T18:26:04.610Z,102249.31
2023-05-25T18:28:31.594Z,102258.31
2023-05-25T18:30:58.633Z,102260.31
2023-05-25T18:33:25.666Z,102263.09
2023-05-25T18:35:52.586Z,102252.63
2023-05-25T18:38:19.517Z,102257.25
2023-05-25T18:40:46.535Z,102263.56
2023-05-25T18:43:13.491Z,102259.31
2023-05-25T18:45:40.423Z,102263.91
2023-05-25T18:48:07.600Z,102271.13
2023-05-25T18:50:35.486Z,102267.72
2023-05-25T18:53:02.530Z,102269.59
2023-05-25T18:55:29.602Z,102277.69
2023-05-25T18:57:56.902Z,102268.03
2023-05-25T19:00:23.912Z,102271.69
2023-05-25T19:02:51.022Z,102269.13
2023-05-25T19:05:19.852Z,102278.94
2023-05-25T19:10:16.772Z,102281.75
2023-05-25T19:12:43.775Z,102285.38
2023-05-25T19:15:11.200Z,102284.59
2023-05-25T19:17:38.155Z,102286.44
2023-05-25T19:20:05.801Z,102290.00
2023-05-25T19:22:32.741Z,102300.63
2023-05-25T19:25:01.038Z,102305.97
2023-05-25T19:27:28.360Z,102311.34
2023-05-25T19:29:55.275Z,102306.13
2023-05-25T19:32:22.236Z,102304.44
2023-05-25T19:34:49.205Z,102301.84
2023-05-25T19:37:16.364Z,102301.03
2023-05-25T19:39:43.287Z,102296.66
2023-05-25T19:42:10.399Z,102302.84
2023-05-25T19:44:37.927Z,102304.66
2023-05-25T19:47:04.909Z,102304.66
2023-05-25T19:49:31.843Z,102305.56
2023-05-25T19:51:58.777Z,102303.84
2023-05-25T19:54:25.697Z,102306.50
2023-05-25T19:56:52.606Z,102302.13
2023-05-25T19:59:21.246Z,102298.66
2023-05-25T20:01:48.409Z,102307.44
2023-05-25T20:04:15.579Z,102303.94
2023-05-25T20:06:42.522Z,102298.69
2023-05-25T20:09:12.535Z,102307.47
2023-05-25T20:11:39.594Z,102300.41
2023-05-25T20:14:07.650Z,102300.44
2023-05-25T20:16:34.610Z,102296.06
2023-05-25T20:19:02.388Z,102293.44
2023-05-25T20:21:30.718Z,102299.59
2023-05-25T20:23:57.834Z,102307.47
2023-05-25T20:26:24.766Z,102299.56
2023-05-25T20:28:51.663Z,102306.59
2023-05-25T20:31:18.611Z,102316.25
2023-05-25T20:33:45.560Z,102317.13
2023-05-25T20:36:14.314Z,102311.84
2023-05-25T20:38:45.403Z,102312.72
2023-05-25T20:41:12.458Z,102314.44
2023-05-25T20:43:39.815Z,102321.41
2023-05-25T20:46:09.970Z,102321.41
2023-05-25T20:48:39.191Z,102324.00
2023-05-25T20:51:06.196Z,102329.25
2023-05-25T20:53:33.133Z,102322.22
2023-05-25T20:56:01.909Z,102313.41
2023-05-25T20:58:28.812Z,102319.53
2023-05-25T21:00:55.917Z,102315.16
2023-05-25T21:03:22.964Z,102316.00
2023-05-25T21:05:50.034Z,102308.94
2023-05-25T21:08:17.154Z,102316.81
2023-05-25T21:10:44.142Z,102316.81
2023-05-25T21:13:11.602Z,102315.88
2023-05-25T21:15:38.539Z,102315.88
2023-05-25T21:18:06.982Z,102311.44
2023-05-25T21:20:34.252Z,102311.44
2023-05-25T21:23:02.531Z,102314.00
2023-05-25T21:25:29.943Z,102320.97
2023-05-25T21:27:57.315Z,102312.16
2023-05-25T21:30:24.617Z,102313.00
2023-05-25T21:32:51.732Z,102317.34
2023-05-25T21:35:18.787Z,102326.94
2023-05-25T21:37:46.175Z,102323.41
2023-05-25T21:40:13.306Z,102321.63
2023-05-25T21:42:40.229Z,102319.81
2023-05-25T21:45:07.700Z,102323.28
2023-05-25T21:47:34.747Z,102332.03
2023-05-25T21:50:01.713Z,102326.72
2023-05-25T21:52:28.646Z,102321.44
2023-05-25T21:54:55.622Z,102331.00
2023-05-25T21:57:22.577Z,102329.22
2023-05-25T21:59:49.592Z,102324.78
2023-05-25T22:02:16.587Z,102331.75
2023-05-25T22:04:43.521Z,102329.09
2023-05-25T22:07:10.680Z,102325.56
2023-05-25T22:09:37.623Z,102326.38
2023-05-25T22:12:04.822Z,102336.78
2023-05-25T22:14:31.755Z,102332.34
2023-05-25T22:16:58.700Z,102333.19
2023-05-25T22:19:25.653Z,102338.38
2023-05-25T22:21:53.468Z,102335.69
2023-05-25T22:24:20.596Z,102333.03
2023-05-25T22:26:47.518Z,102326.00
2023-05-25T22:29:14.470Z,102322.41
2023-05-25T22:31:41.481Z,102326.72
2023-05-25T22:34:08.445Z,102321.44
2023-05-25T22:36:36.727Z,102322.22
2023-05-25T22:39:03.972Z,102333.56
2023-05-25T22:41:30.923Z,102325.63
2023-05-25T22:43:57.838Z,102332.53
2023-05-25T22:46:24.804Z,102327.22
2023-05-25T22:48:51.823Z,102316.69
2023-05-25T22:51:18.753Z,102325.38
2023-05-25T22:53:45.715Z,102331.44
2023-05-25T22:56:12.670Z,102329.63
2023-05-25T22:58:39.594Z,102336.47
2023-05-25T23:01:06.749Z,102340.84
2023-05-25T23:03:33.765Z,102346.03
2023-05-25T23:06:00.915Z,102342.44
2023-05-25T23:08:27.937Z,102351.97
2023-05-25T23:10:54.929Z,102347.53
2023-05-25T23:13:24.118Z,102340.50
2023-05-25T23:15:51.166Z,102347.41
2023-05-25T23:18:18.165Z,102338.63
2023-05-25T23:20:45.163Z,102342.91
2023-05-25T23:23:12.365Z,102350.69
2023-05-25T23:25:39.271Z,102346.28
2023-05-25T23:28:06.203Z,102352.34
2023-05-25T23:30:33.123Z,102353.16
2023-05-25T23:33:00.695Z,102351.34
2023-05-25T23:35:28.632Z,102358.25
2023-05-25T23:37:57.561Z,102352.06
2023-05-25T23:40:24.658Z,102349.34
2023-05-25T23:42:52.071Z,102350.19
2023-05-25T23:45:19.205Z,102350.06
2023-05-25T23:47:46.301Z,102358.78
2023-05-25T23:50:13.315Z,102355.19
2023-05-25T23:52:41.324Z,102358.66
2023-05-25T23:55:08.704Z,102353.38
2023-05-25T23:57:36.612Z,102348.06
